Latest Weather Observations for Little Bay

IDN60901

Issued at 2:11 pm EDT Tuesday 30 November 2021 (issued every 10 minutes, with the page automatically refreshed every 10 minutes)

About weather observations | Map of Sydney area stations | Latest observations for Sydney area | Other Formats
Station Details ID: 066051 Name: LITTLE BAY (THE COAST GOLF CLUB) Lat: -33.98 Lon: 151.25 Height: 22.0 m
Data from the previous 72 hours. | See also: Recent months at Little Bay
Date/Time
EDT
Temp
°C
App
Temp
°C
Dew
Point
°C
Rel
Hum
%
Delta-T
°C
Wind Press
QNH
hPa
Press
MSL
hPa
Rain since
9am
mm
Dir  Spd
km/h
Gust
km/h
Spd
kts
Gust
kts
30/02:00pm - - - - - SE 6 7 3 4 - - -
30/01:30pm - - - - - ESE 6 9 3 5 - - -
30/01:00pm - - - - - E 7 15 4 8 - - -
30/12:30pm - - - - - SSE 6 7 3 4 - - -
30/12:00pm - - - - - SSE 6 6 3 3 - - -
30/11:30am - - - - - SSE 6 7 3 4 - - -
30/11:00am - - - - - SSE 6 7 3 4 - - -
30/10:30am - - - - - SSE 7 7 4 4 - - -
30/10:00am - - - - - SSW 6 9 3 5 - - -
30/09:30am - - - - - S 7 11 4 6 - - -
30/09:00am - - - - - S 7 11 4 6 - - -
30/08:30am - - - - - S 7 9 4 5 - - -
30/08:00am - - - - - SSW 7 9 4 5 - - -
30/07:30am - - - - - S 9 13 5 7 - - -
30/07:00am - - - - - SSW 7 11 4 6 - - -
30/06:30am - - - - - SSW 6 7 3 4 - - -
30/06:00am - - - - - S 7 11 4 6 - - -
30/05:30am - - - - - S 9 11 5 6 - - -
30/05:00am - - - - - S 2 6 1 3 - - -
30/04:30am - - - - - SSW 11 13 6 7 - - -
30/04:00am - - - - - CALM 0 0 0 0 - - -
30/03:30am - - - - - CALM 0 0 0 0 - - -
30/03:00am - - - - - CALM 0 0 0 0 - - -
30/02:30am - - - - - CALM 0 0 0 0 - - -
30/02:00am - - - - - N 6 9 3 5 - - -
30/01:30am - - - - - N 6 11 3 6 - - -
30/01:00am - - - - - N 7 9 4 5 - - -
30/12:30am - - - - - NNE 6 9 3 5 - - -
30/12:00am - - - - - NNE 9 13 5 7 - - -
 
Date/Time
EDT
Temp
°C
App
Temp
°C
Dew
Point
°C
Rel
Hum
%
Delta-T
°C
Wind Press
QNH
hPa
Press
MSL
hPa
Rain since
9am
mm
Dir  Spd
km/h
Gust
km/h
Spd
kts
Gust
kts
29/11:30pm - - - - - NNE 9 13 5 7 - - -
29/11:00pm - - - - - NNE 11 15 6 8 - - -
29/10:30pm - - - - - NNE 11 15 6 8 - - -
29/10:00pm - - - - - NNE 9 11 5 6 - - -
29/09:30pm - - - - - NE 7 13 4 7 - - -
29/09:00pm - - - - - NNE 7 9 4 5 - - -
29/08:30pm - - - - - NE 7 11 4 6 - - -
29/08:00pm - - - - - ENE 9 13 5 7 - - -
29/07:30pm - - - - - NE 9 13 5 7 - - -
29/07:00pm - - - - - ENE 9 13 5 7 - - -
29/06:30pm - - - - - ENE 11 13 6 7 - - -
29/06:00pm - - - - - ENE 9 13 5 7 - - -
29/05:30pm - - - - - ENE 9 13 5 7 - - -
29/05:00pm - - - - - ENE 9 13 5 7 - - -
29/04:30pm - - - - - ENE 7 11 4 6 - - -
29/04:00pm - - - - - E 9 13 5 7 - - -
29/03:30pm - - - - - E 9 13 5 7 - - -
29/03:00pm - - - - - ENE 9 13 5 7 - - -
29/02:30pm - - - - - E 9 11 5 6 - - -
29/02:00pm - - - - - ESE 11 13 6 7 - - -
29/01:30pm - - - - - SE 9 13 5 7 - - -
29/01:00pm - - - - - SE 13 17 7 9 - - -
29/12:30pm - - - - - SSE 13 17 7 9 - - -
29/12:00pm - - - - - SSE 15 19 8 10 - - -
29/11:30am - - - - - SSE 15 22 8 12 - - -
29/11:00am - - - - - SSE 15 19 8 10 - - -
29/10:30am - - - - - S 13 19 7 10 - - -
29/10:00am - - - - - S 13 17 7 9 - - -
29/09:30am - - - - - S 13 20 7 11 - - -
29/09:00am - - - - - SSW 15 20 8 11 - - -
29/08:30am - - - - - S 15 22 8 12 - - -
29/08:00am - - - - - S 13 19 7 10 - - -
29/07:30am - - - - - SSW 11 15 6 8 - - -
29/07:00am - - - - - SSW 13 17 7 9 - - -
29/06:30am - - - - - SSW 11 17 6 9 - - -
29/06:00am - - - - - WSW 6 9 3 5 - - -
29/05:30am - - - - - WSW 7 11 4 6 - - -
29/05:00am - - - - - WSW 7 9 4 5 - - -
29/04:30am - - - - - WSW 7 11 4 6 - - -
29/04:00am - - - - - WSW 7 9 4 5 - - -
29/03:30am - - - - - WSW 7 11 4 6 - - -
29/03:00am - - - - - WSW 9 13 5 7 - - -
29/02:30am - - - - - WSW 9 15 5 8 - - -
29/02:00am - - - - - SW 7 13 4 7 - - -
29/01:30am - - - - - SSW 9 15 5 8 - - -
29/01:00am - - - - - SSW 11 15 6 8 - - -
29/12:30am - - - - - SSW 13 19 7 10 - - -
29/12:00am - - - - - SSW 15 20 8 11 - - -
 
Date/Time
EDT
Temp
°C
App
Temp
°C
Dew
Point
°C
Rel
Hum
%
Delta-T
°C
Wind Press
QNH
hPa
Press
MSL
hPa
Rain since
9am
mm
Dir  Spd
km/h
Gust
km/h
Spd
kts
Gust
kts
28/11:30pm - - - - - S 15 19 8 10 - - -
28/11:00pm - - - - - S 17 22 9 12 - - -
28/10:30pm - - - - - S 19 28 10 15 - - -
28/10:00pm - - - - - S 17 26 9 14 - - -
28/09:30pm - - - - - S 20 28 11 15 - - -
28/09:00pm - - - - - S 19 30 10 16 - - -
28/08:30pm - - - - - S 20 28 11 15 - - -
28/08:00pm - - - - - S 24 33 13 18 - - -
28/07:30pm - - - - - S 22 30 12 16 - - -
28/07:00pm - - - - - S 22 30 12 16 - - -
28/06:30pm - - - - - S 20 30 11 16 - - -
28/06:00pm - - - - - S 22 30 12 16 - - -
28/05:30pm - - - - - SSE 22 33 12 18 - - -
28/05:00pm - - - - - S 24 35 13 19 - - -
28/04:30pm - - - - - S 26 39 14 21 - - -
28/04:00pm - - - - - S 20 33 11 18 - - -
28/03:30pm - - - - - S 24 35 13 19 - - -
28/03:00pm - - - - - S 28 37 15 20 - - -
28/02:30pm - - - - - S 26 37 14 20 - - -
28/02:00pm - - - - - S 24 33 13 18 - - -
28/01:30pm - - - - - S 30 37 16 20 - - -
28/01:00pm - - - - - S 28 35 15 19 - - -
28/12:30pm - - - - - S 26 33 14 18 - - -
28/12:00pm - - - - - S 26 33 14 18 - - -
28/11:30am - - - - - S 26 33 14 18 - - -
28/11:00am - - - - - S 26 35 14 19 - - -
28/10:30am - - - - - S 24 35 13 19 - - -
28/10:00am - - - - - S 28 39 15 21 - - -
28/09:30am - - - - - S 33 46 18 25 - - -
28/09:00am - - - - - S 28 39 15 21 - - -
28/08:30am - - - - - S 28 37 15 20 - - -
28/08:00am - - - - - S 28 39 15 21 - - -
28/07:30am - - - - - S 24 39 13 21 - - -
28/07:00am - - - - - S 28 37 15 20 - - -
28/06:30am - - - - - S 24 37 13 20 - - -
28/06:00am - - - - - S 26 35 14 19 - - -
28/05:30am - - - - - S 30 41 16 22 - - -
28/05:00am - - - - - S 30 41 16 22 - - -
28/04:30am - - - - - S 30 41 16 22 - - -
28/04:00am - - - - - S 28 41 15 22 - - -
28/03:30am - - - - - S 30 43 16 23 - - -
28/03:00am - - - - - S 28 41 15 22 - - -
28/02:30am - - - - - S 30 43 16 23 - - -
28/02:00am - - - - - S 32 43 17 23 - - -
28/01:30am - - - - - S 30 44 16 24 - - -
28/01:00am - - - - - S 30 43 16 23 - - -
28/12:30am - - - - - S 30 41 16 22 - - -
28/12:00am - - - - - S 28 41 15 22 - - -
 
Date/Time
EDT
Temp
°C
App
Temp
°C
Dew
Point
°C
Rel
Hum
%
Delta-T
°C
Wind Press
QNH
hPa
Press
MSL
hPa
Rain since
9am
mm
Dir  Spd
km/h
Gust
km/h
Spd
kts
Gust
kts
27/11:30pm - - - - - S 30 43 16 23 - - -
27/11:00pm - - - - - S 30 41 16 22 - - -
27/10:30pm - - - - - S 30 43 16 23 - - -
27/10:00pm - - - - - S 30 44 16 24 - - -
27/09:30pm - - - - - S 32 43 17 23 - - -
27/09:00pm - - - - - S 33 44 18 24 - - -
27/08:30pm - - - - - S 32 52 17 28 - - -
27/08:25pm - - - - - S 30 50 16 27 - - -
27/08:00pm - - - - - S 28 39 15 21 - - -
27/07:30pm - - - - - S 35 44 19 24 - - -
27/07:00pm - - - - - S 37 48 20 26 - - -
27/06:30pm - - - - - S 33 46 18 25 - - -
27/06:15pm - - - - - S 33 52 18 28 - - -
27/06:00pm - - - - - S 33 44 18 24 - - -
27/05:30pm - - - - - S 33 48 18 26 - - -
27/05:00pm - - - - - SSE 33 52 18 28 - - -
27/04:59pm - - - - - SSE 33 52 18 28 - - -
27/04:30pm - - - - - S 35 48 19 26 - - -
27/04:00pm - - - - - S 33 46 18 25 - - -
27/03:30pm - - - - - S 37 52 20 28 - - -
27/03:21pm - - - - - S 33 52 18 28 - - -
27/03:00pm - - - - - S 35 46 19 25 - - -
27/02:30pm - - - - - S 35 48 19 26 - - -

Latest Capital City Observations: Canberra | Sydney | Melbourne | Brisbane | Adelaide | Perth | Hobart | Darwin

Other formats

Comma delimited format used in spreadsheet applications
http://www.bom.gov.au/fwo/IDN60901/IDN60901.94780.axf

JavaScript Object Notation format (JSON) in row-major order
http://www.bom.gov.au/fwo/IDN60901/IDN60901.94780.json

Data quality

Most of these data are generated automatically and are frequently updated. Quality checks on data are not normally performed. It is possible for incorrect values to appear. Refer to information at About Latest Weather Observations and please check the disclaimer before using these data.